Aviation Digital Data Service (ADDS)

Output produced by TAFs form (1214 UTC 25 January 2015)
found at http://aviationweather.gov/adds/tafs/
 
KAMA 251138Z 2512/2612 31012KT P6SM FEW250 
     FM251700 32016G25KT P6SM FEW250 
     FM260000 28009KT P6SM SKC